(°C)
20°
20°
20°
18°
17°
16°
15°
(°C)
18°
18°
18°
16°
15°
14°
13°
ESE
E
E
E
E
E
E
(km/h)
12-25
11-23
10-21
9-20
8-18
7-16
7-15
(mm)
0
0
0
0
0
0
0
(%)
20
11
1
1
0
0
0

Elevazione del sole

/ 49.4°
sun-icon
UV 6
05:39
20:18
Luna calante (291°)
02:58
14:37

METAR per Wilmington Manor (KILG)

Ora Condizioni Temperatura/
Punto di rugiada
Vento Visibilità Meteo Nuvole Pressione Cambiamento Grezzo
VFR 19.4°C / 9.4°C 120º 8kt >10km - Overcast 5000ft 1025 - KILG 241851Z 12008KT 10SM OVC050 19/09 A3028 RMK AO2 SLP252 T01940094
VFR 18.9°C / 10°C 120º 8kt >10km - Few Clouds 3700ft
Overcast 5000ft
1025 - KILG 241751Z 12008KT 10SM FEW037 OVC050 19/10 A3027 RMK AO2 SLP251 T01890100 10194 20167 58001
VFR 18.3°C / 10°C 120º 9kt >10km - Overcast 4500ft 1025 - KILG 241651Z 12009KT 10SM OVC045 18/10 A3028 RMK AO2 SLP255 T01830100
VFR 17.8°C / 10°C 140º 9kt >10km - Overcast 3700ft 1025 - KILG 241551Z 14009KT 10SM OVC037 18/10 A3029 RMK AO2 SLP256 T01780100
VFR 17.8°C / 10.6°C 100º 8kt >10km - Overcast 4800ft 1025 - KILG 241451Z 10008KT 10SM OVC048 18/11 A3028 RMK AO2 SLP252 T01780106 51015
VFR 18.3°C / 12.2°C 100º 8kt >10km - Overcast 5500ft 1024 - KILG 241351Z 10008KT 10SM OVC055 18/12 A3027 RMK AO2 SLP249 T01830122
VFR 17.2°C / 12.8°C 100º 9kt >10km - Overcast 6000ft 1024 - KILG 241251Z 10009KT 10SM OVC060 17/13 A3025 RMK AO2 SLP242 T01720128
VFR 16.7°C / 12.8°C 100º 8kt >10km 0.13mm precipitation Overcast 6000ft 1023 - KILG 241151Z 10008KT 10SM OVC060 17/13 A3023 RMK AO2 RAB1056E07 SLP237 P0000 60000 70001 T01670128 10172 20161 53009
VFR 16.1°C / 12.2°C 110º 6kt >10km - Overcast 6000ft 1023 - KILG 241051Z 11006KT 10SM OVC060 16/12 A3023 RMK AO2 SLP235 T01610122
VFR 16.1°C / 13.3°C 90º 4kt >10km - Scattered Clouds 12000ft 1022 - KILG 240951Z AUTO 09004KT 10SM SCT120 16/13 A3020 RMK AO2 SLP226 T01610133 $
VFR 16.1°C / 13.3°C 160º 3kt >10km 0.13mm precipitation Broken Clouds 6000ft
Overcast 8000ft
1022 - KILG 240851Z AUTO 16003KT 10SM BKN060 OVC080 16/13 A3021 RMK AO2 RAE03 SLP229 P0000 60000 T01610133 50001 $
VFR 16.1°C / 13.3°C 230º 4kt >10km Light Rain 0.13mm precipitation Overcast 6000ft 1023 - KILG 240751Z AUTO 23004KT 10SM -RA OVC060 16/13 A3022 RMK AO2 RAE01B49 SLP232 P0000 T01610133 $
VFR 16.7°C / 15°C 270º 3kt >10km Light Rain 0.13mm precipitation Overcast 6500ft 1022 - KILG 240651Z AUTO 27003KT 10SM -RA OVC065 17/15 A3021 RMK AO2 RAE11B40 SLP229 P0000 T01670150 $
VFR 16.7°C / 13.9°C 150º 4kt >10km Light Rain 0.25mm precipitation Overcast 7500ft 1022 - KILG 240551Z AUTO 15004KT 10SM -RA OVC075 17/14 A3020 RMK AO2 SLP227 P0001 60001 T01670139 10211 20167 58004 $
VFR 17.2°C / 13.9°C 120º 4kt >10km Light Rain 0.13mm precipitation Overcast 7500ft 1022 - KILG 240451Z AUTO 12004KT 10SM -RA OVC075 17/14 A3021 RMK AO2 SLP229 P0000 T01720139 402440156 $
VFR 18.3°C / 15°C 140º 6kt 9700m Light Rain 0.13mm precipitation Overcast 8000ft 1023 - KILG 240351Z AUTO 14006KT 6SM -RA OVC080 18/15 A3022 RMK AO2 RAE18B42 SLP232 P0000 T01830150 $
VFR 20°C / 8.9°C 20º 3kt >10km Light Rain 0.13mm precipitation Overcast 9000ft 1023 - KILG 240251Z AUTO 02003KT 10SM -RA OVC090 20/09 A3022 RMK AO2 RAB38 SLP232 P0000 60000 T02000089 53014 $
VFR 20°C / 10.6°C 320º 4kt >10km - Few Clouds 7000ft
Overcast 10000ft
1022 - KILG 240151Z AUTO 32004KT 10SM FEW070 OVC100 20/11 A3021 RMK AO2 SLP229 T02000106 $
VFR 20.6°C / 10.6°C 330º 5kt >10km - Overcast 11000ft 1022 - KILG 240051Z 33005KT 10SM OVC110 21/11 A3018 RMK AO2 SLP220 T02060106 $
VFR 21.1°C / 10°C 340º 5kt >10km - Scattered Clouds 10000ft
Broken Clouds 12000ft
1021 - KILG 232351Z 34005KT 10SM SCT100 BKN120 21/10 A3017 RMK AO2 SLP217 T02110100 10244 20211 50000 $
VFR 21.7°C / 10°C 320º 8kt >10km - Broken Clouds 9500ft 1021 - KILG 232251Z 32008KT 10SM BKN095 22/10 A3018 RMK AO2 SLP218 T02170100 $
VFR 22.8°C / 10.6°C 330º 5kt >10km - Few Clouds 9000ft 1021 - KILG 232151Z 33005KT 10SM FEW090 23/11 A3017 RMK AO2 SLP217 T02280106 $
VFR 23.3°C / 10°C 310º 6kt >10km - Scattered Clouds 9000ft 1021 - KILG 232051Z 31006KT 10SM SCT090 23/10 A3017 RMK AO2 SLP217 T02330100 56009 $
VFR 24.4°C / 10°C 360º 7kt >10km - Clear 1021 - KILG 231951Z 36007KT 10SM CLR 24/10 A3017 RMK AO2 SLP217 T02440100 $

VFR

19.4°C / 9.4°C

[Più]
Vento 120º 8kt
Visibilità >10km
Meteo -
Nuvole Overcast 5000ft
Pressione 1025
Cambiamento -
Grezzo KILG 241851Z 12008KT 10SM OVC050 19/09 A3028 RMK AO2 SLP252 T01940094

VFR

18.9°C / 10°C

[Più]
Vento 120º 8kt
Visibilità >10km
Meteo -
Nuvole Few Clouds 3700ft
Overcast 5000ft
Pressione 1025
Cambiamento -
Grezzo KILG 241751Z 12008KT 10SM FEW037 OVC050 19/10 A3027 RMK AO2 SLP251 T01890100 10194 20167 58001

VFR

18.3°C / 10°C

[Più]
Vento 120º 9kt
Visibilità >10km
Meteo -
Nuvole Overcast 4500ft
Pressione 1025
Cambiamento -
Grezzo KILG 241651Z 12009KT 10SM OVC045 18/10 A3028 RMK AO2 SLP255 T01830100

VFR

17.8°C / 10°C

[Più]
Vento 140º 9kt
Visibilità >10km
Meteo -
Nuvole Overcast 3700ft
Pressione 1025
Cambiamento -
Grezzo KILG 241551Z 14009KT 10SM OVC037 18/10 A3029 RMK AO2 SLP256 T01780100

VFR

17.8°C / 10.6°C

[Più]
Vento 100º 8kt
Visibilità >10km
Meteo -
Nuvole Overcast 4800ft
Pressione 1025
Cambiamento -
Grezzo KILG 241451Z 10008KT 10SM OVC048 18/11 A3028 RMK AO2 SLP252 T01780106 51015

VFR

18.3°C / 12.2°C

[Più]
Vento 100º 8kt
Visibilità >10km
Meteo -
Nuvole Overcast 5500ft
Pressione 1024
Cambiamento -
Grezzo KILG 241351Z 10008KT 10SM OVC055 18/12 A3027 RMK AO2 SLP249 T01830122

VFR

17.2°C / 12.8°C

[Più]
Vento 100º 9kt
Visibilità >10km
Meteo -
Nuvole Overcast 6000ft
Pressione 1024
Cambiamento -
Grezzo KILG 241251Z 10009KT 10SM OVC060 17/13 A3025 RMK AO2 SLP242 T01720128

VFR

16.7°C / 12.8°C

[Più]
Vento 100º 8kt
Visibilità >10km
Meteo 0.13mm precipitation
Nuvole Overcast 6000ft
Pressione 1023
Cambiamento -
Grezzo KILG 241151Z 10008KT 10SM OVC060 17/13 A3023 RMK AO2 RAB1056E07 SLP237 P0000 60000 70001 T01670128 10172 20161 53009

VFR

16.1°C / 12.2°C

[Più]
Vento 110º 6kt
Visibilità >10km
Meteo -
Nuvole Overcast 6000ft
Pressione 1023
Cambiamento -
Grezzo KILG 241051Z 11006KT 10SM OVC060 16/12 A3023 RMK AO2 SLP235 T01610122

VFR

16.1°C / 13.3°C

[Più]
Vento 90º 4kt
Visibilità >10km
Meteo -
Nuvole Scattered Clouds 12000ft
Pressione 1022
Cambiamento -
Grezzo KILG 240951Z AUTO 09004KT 10SM SCT120 16/13 A3020 RMK AO2 SLP226 T01610133 $

VFR

16.1°C / 13.3°C

[Più]
Vento 160º 3kt
Visibilità >10km
Meteo 0.13mm precipitation
Nuvole Broken Clouds 6000ft
Overcast 8000ft
Pressione 1022
Cambiamento -
Grezzo KILG 240851Z AUTO 16003KT 10SM BKN060 OVC080 16/13 A3021 RMK AO2 RAE03 SLP229 P0000 60000 T01610133 50001 $

VFR

16.1°C / 13.3°C

[Più]
Vento 230º 4kt
Visibilità >10km
Meteo Light Rain 0.13mm precipitation
Nuvole Overcast 6000ft
Pressione 1023
Cambiamento -
Grezzo KILG 240751Z AUTO 23004KT 10SM -RA OVC060 16/13 A3022 RMK AO2 RAE01B49 SLP232 P0000 T01610133 $

VFR

16.7°C / 15°C

[Più]
Vento 270º 3kt
Visibilità >10km
Meteo Light Rain 0.13mm precipitation
Nuvole Overcast 6500ft
Pressione 1022
Cambiamento -
Grezzo KILG 240651Z AUTO 27003KT 10SM -RA OVC065 17/15 A3021 RMK AO2 RAE11B40 SLP229 P0000 T01670150 $

VFR

16.7°C / 13.9°C

[Più]
Vento 150º 4kt
Visibilità >10km
Meteo Light Rain 0.25mm precipitation
Nuvole Overcast 7500ft
Pressione 1022
Cambiamento -
Grezzo KILG 240551Z AUTO 15004KT 10SM -RA OVC075 17/14 A3020 RMK AO2 SLP227 P0001 60001 T01670139 10211 20167 58004 $

VFR

17.2°C / 13.9°C

[Più]
Vento 120º 4kt
Visibilità >10km
Meteo Light Rain 0.13mm precipitation
Nuvole Overcast 7500ft
Pressione 1022
Cambiamento -
Grezzo KILG 240451Z AUTO 12004KT 10SM -RA OVC075 17/14 A3021 RMK AO2 SLP229 P0000 T01720139 402440156 $

VFR

18.3°C / 15°C

[Più]
Vento 140º 6kt
Visibilità 9700m
Meteo Light Rain 0.13mm precipitation
Nuvole Overcast 8000ft
Pressione 1023
Cambiamento -
Grezzo KILG 240351Z AUTO 14006KT 6SM -RA OVC080 18/15 A3022 RMK AO2 RAE18B42 SLP232 P0000 T01830150 $

VFR

20°C / 8.9°C

[Più]
Vento 20º 3kt
Visibilità >10km
Meteo Light Rain 0.13mm precipitation
Nuvole Overcast 9000ft
Pressione 1023
Cambiamento -
Grezzo KILG 240251Z AUTO 02003KT 10SM -RA OVC090 20/09 A3022 RMK AO2 RAB38 SLP232 P0000 60000 T02000089 53014 $

VFR

20°C / 10.6°C

[Più]
Vento 320º 4kt
Visibilità >10km
Meteo -
Nuvole Few Clouds 7000ft
Overcast 10000ft
Pressione 1022
Cambiamento -
Grezzo KILG 240151Z AUTO 32004KT 10SM FEW070 OVC100 20/11 A3021 RMK AO2 SLP229 T02000106 $

VFR

20.6°C / 10.6°C

[Più]
Vento 330º 5kt
Visibilità >10km
Meteo -
Nuvole Overcast 11000ft
Pressione 1022
Cambiamento -
Grezzo KILG 240051Z 33005KT 10SM OVC110 21/11 A3018 RMK AO2 SLP220 T02060106 $

VFR

21.1°C / 10°C

[Più]
Vento 340º 5kt
Visibilità >10km
Meteo -
Nuvole Scattered Clouds 10000ft
Broken Clouds 12000ft
Pressione 1021
Cambiamento -
Grezzo KILG 232351Z 34005KT 10SM SCT100 BKN120 21/10 A3017 RMK AO2 SLP217 T02110100 10244 20211 50000 $

VFR

21.7°C / 10°C

[Più]
Vento 320º 8kt
Visibilità >10km
Meteo -
Nuvole Broken Clouds 9500ft
Pressione 1021
Cambiamento -
Grezzo KILG 232251Z 32008KT 10SM BKN095 22/10 A3018 RMK AO2 SLP218 T02170100 $

VFR

22.8°C / 10.6°C

[Più]
Vento 330º 5kt
Visibilità >10km
Meteo -
Nuvole Few Clouds 9000ft
Pressione 1021
Cambiamento -
Grezzo KILG 232151Z 33005KT 10SM FEW090 23/11 A3017 RMK AO2 SLP217 T02280106 $

VFR

23.3°C / 10°C

[Più]
Vento 310º 6kt
Visibilità >10km
Meteo -
Nuvole Scattered Clouds 9000ft
Pressione 1021
Cambiamento -
Grezzo KILG 232051Z 31006KT 10SM SCT090 23/10 A3017 RMK AO2 SLP217 T02330100 56009 $

VFR

24.4°C / 10°C

[Più]
Vento 360º 7kt
Visibilità >10km
Meteo -
Nuvole Clear
Pressione 1021
Cambiamento -
Grezzo KILG 231951Z 36007KT 10SM CLR 24/10 A3017 RMK AO2 SLP217 T02440100 $

TAF per Wilmington Manor (KILG)

From till


From till Wind 120º 8kt. Visibility 10km or more. Broken Clouds 5000ft.
From till Wind 80º 6kt. Visibility 10km or more. Scattered Clouds 7000ft.
From till Wind 70º 5kt. Visibility 10km or more. Scattered Clouds 8000ft.

Grezzo: KILG 241720Z 2418/2518 12008KT P6SM BKN050 FM250000 08006KT P6SM SCT070 FM251200 07005KT P6SM SCT080

Radar e nowcasting per Wilmington Manor

Pioviggine
Lieve
Moderato
Forte
Molto forte
Grandine

Il segnaposto è situato a Wilmington Manor. Questa animazione mostra il radar delle precipitazioni per l'ultima ora, nonché una previsione 1h. Una pioviggine o una leggera caduta di neve potrebbero essere invisibili per il radar. L'intensità delle precipitazioni è codificata a colori, dal blu chiaro all'arancione.

Immagine satellitare per Wilmington Manor, Stati Uniti

Il segnaposto è situato a Wilmington Manor. [Più]

L'immagine satellitare in tempo reale combina la luce visibile durante il giorno con la radiazione infrarossa durante la notte. Di notte l'immagine non è scura poiché i raggi infrarossi possono rilevare differenze di temperatura. Purtroppo, le nuvole basse e la nebbia sono difficili da distinguere dalla temperatura del suolo e possono pertanto essere quasi invisibili durante la notte. Le immagini satellitari Meteosat per l'Europa vengono aggiornate in tempo reale ogni 5 minuti. Le immagini GOES-16 / GOES-17 (Nord e Sud America) e Himawari (Asia) vengono aggiornate ogni 10 minuti.

Tornare su